Time;durP1;ratioP1;P1;durP2;ratioP2;P2;SDS_P1;SDS_P2;PMS_P1;PMS_P2;Temp;Humidity;BMP_temperature;BMP_pressure;BME280_temperature;BME280_humidity;BME280_pressure;Samples;Min_cycle;Max_cycle;Signal;HPM_P1;HPM_P2
2022/12/21 00:00:23;;;;;;;6.68;3.40;;;12.10;99.90;;;;;;4987181;28;20026;-86
2022/12/21 00:02:48;;;;;;;6.50;3.73;;;12.10;99.90;;;;;;4989847;28;20533;-86
2022/12/21 00:05:14;;;;;;;4.93;3.10;;;12.10;99.90;;;;;;4966903;28;20568;-86
2022/12/21 00:07:40;;;;;;;6.55;4.00;;;12.10;99.90;;;;;;4981395;28;20029;-86
2022/12/21 00:10:06;;;;;;;7.80;3.93;;;12.10;99.90;;;;;;4975027;28;20038;-86
2022/12/21 00:12:32;;;;;;;9.73;4.30;;;12.10;99.90;;;;;;4989206;28;20044;-86
2022/12/21 00:14:57;;;;;;;8.97;4.30;;;12.10;99.90;;;;;;4961293;28;20026;-86
2022/12/21 00:17:23;;;;;;;8.35;4.38;;;12.10;99.90;;;;;;4994227;28;20017;-86
2022/12/21 00:19:49;;;;;;;8.50;4.43;;;12.00;99.90;;;;;;4988581;28;20307;-86
2022/12/21 00:22:15;;;;;;;7.25;4.22;;;12.00;99.90;;;;;;4969547;28;20247;-87
2022/12/21 00:24:41;;;;;;;6.03;3.70;;;12.00;99.90;;;;;;4991336;28;20045;-87
2022/12/21 00:27:06;;;;;;;6.10;3.45;;;12.00;99.90;;;;;;4990980;28;20209;-86
2022/12/21 00:29:32;;;;;;;5.95;3.70;;;12.00;99.90;;;;;;4967258;28;20028;-87
2022/12/21 00:31:58;;;;;;;6.50;3.40;;;12.00;99.90;;;;;;4972290;28;20640;-87
2022/12/21 00:34:23;;;;;;;6.87;4.00;;;12.00;99.90;;;;;;5009916;28;20026;-87
2022/12/21 00:36:50;;;;;;;7.30;3.88;;;12.00;99.90;;;;;;4981255;28;20064;-86
2022/12/21 00:39:17;;;;;;;6.30;3.85;;;12.00;99.90;;;;;;4962723;28;20188;-86
2022/12/21 00:41:43;;;;;;;5.73;3.83;;;11.90;99.90;;;;;;4973906;28;20081;-86
2022/12/21 00:44:09;;;;;;;6.50;3.53;;;11.90;99.90;;;;;;4995568;28;20536;-86
2022/12/21 00:46:35;;;;;;;6.20;3.55;;;11.90;99.90;;;;;;4950714;28;20047;-86
2022/12/21 00:49:05;;;;;;;6.60;3.95;;;11.90;99.90;;;;;;4986419;28;20123;-86
2022/12/21 00:51:33;;;;;;;7.18;4.10;;;11.90;99.90;;;;;;4988808;28;20067;-87
2022/12/21 00:53:59;;;;;;;7.07;4.07;;;11.90;99.90;;;;;;4950269;28;20022;-86
2022/12/21 00:56:25;;;;;;;7.90;4.20;;;11.90;99.90;;;;;;4975656;28;20055;-86
2022/12/21 00:58:51;;;;;;;8.30;4.72;;;11.90;99.90;;;;;;5005442;28;20271;-86
2022/12/21 01:01:20;;;;;;;7.28;3.92;;;11.90;99.90;;;;;;4978152;28;21216;-86
2022/12/21 01:03:47;;;;;;;7.93;4.45;;;11.90;99.90;;;;;;4977800;28;20617;-89
2022/12/21 01:06:15;;;;;;;8.13;4.53;;;11.90;99.90;;;;;;4973836;28;20072;-89
2022/12/21 01:08:42;;;;;;;8.20;4.68;;;11.90;99.90;;;;;;4963787;28;20079;-89
2022/12/21 01:11:10;;;;;;;8.27;4.75;;;11.90;99.90;;;;;;4993341;28;20037;-89
2022/12/21 01:13:36;;;;;;;7.95;4.32;;;11.90;99.90;;;;;;4979259;28;20075;-89
2022/12/21 01:16:02;;;;;;;7.00;4.13;;;11.90;99.90;;;;;;4961624;28;20616;-89
2022/12/21 01:18:27;;;;;;;8.43;4.33;;;11.90;99.90;;;;;;4991753;28;20020;-89
2022/12/21 01:20:55;;;;;;;7.88;4.30;;;11.90;99.90;;;;;;4988035;28;20134;-89
2022/12/21 01:23:22;;;;;;;7.13;3.90;;;11.90;99.90;;;;;;4965178;28;20474;-86
2022/12/21 01:25:48;;;;;;;7.60;4.10;;;11.90;99.90;;;;;;4975029;28;20072;-86
2022/12/21 01:28:14;;;;;;;6.25;3.63;;;11.90;99.90;;;;;;4989832;28;20192;-86
2022/12/21 01:30:41;;;;;;;6.38;3.60;;;11.90;99.90;;;;;;5007947;28;20029;-86
2022/12/21 01:33:18;;;;;;;7.13;3.97;;;11.90;99.90;;;;;;4945884;28;20034;-86
2022/12/21 01:35:45;;;;;;;7.30;3.90;;;11.80;99.90;;;;;;4991298;28;20124;-86
2022/12/21 01:38:12;;;;;;;6.20;3.53;;;11.80;99.90;;;;;;4994987;28;20837;-86
2022/12/21 01:40:38;;;;;;;4.95;3.05;;;11.80;99.90;;;;;;5007582;28;20029;-86
2022/12/21 01:43:19;;;;;;;5.95;3.17;;;11.80;99.90;;;;;;4962124;28;20645;-86
2022/12/21 01:45:51;;;;;;;5.78;3.33;;;11.80;99.90;;;;;;4993621;28;20113;-86
2022/12/21 01:48:18;;;;;;;7.03;3.40;;;11.80;99.90;;;;;;4981332;28;20464;-86
2022/12/21 01:51:05;;;;;;;6.05;3.40;;;11.80;99.90;;;;;;4975216;28;20116;-86
2022/12/21 01:53:48;;;;;;;6.00;3.67;;;11.80;99.90;;;;;;4994471;28;20115;-86
2022/12/21 01:56:17;;;;;;;5.82;3.30;;;11.80;99.90;;;;;;4987926;28;20030;-86
2022/12/21 01:58:42;;;;;;;6.45;3.67;;;11.70;99.90;;;;;;4964056;28;20018;-86
2022/12/21 02:01:08;;;;;;;6.50;3.40;;;11.80;99.90;;;;;;4972474;28;20226;-87
2022/12/21 02:03:39;;;;;;;6.60;3.50;;;11.70;99.90;;;;;;4989264;28;20034;-86
2022/12/21 02:06:08;;;;;;;7.32;3.20;;;11.70;99.90;;;;;;4974311;28;20041;-86
2022/12/21 02:08:34;;;;;;;6.80;3.28;;;11.70;99.90;;;;;;4995058;28;20029;-86
2022/12/21 02:11:01;;;;;;;4.83;2.73;;;11.60;99.90;;;;;;4998657;28;20105;-86
2022/12/21 02:13:27;;;;;;;6.38;3.15;;;11.70;99.90;;;;;;4991415;28;20304;-87
2022/12/21 02:15:59;;;;;;;6.65;2.65;;;11.70;99.90;;;;;;4975714;28;20418;-86
2022/12/21 02:18:49;;;;;;;5.93;2.95;;;11.60;99.90;;;;;;4964881;28;20057;-86
2022/12/21 02:21:25;;;;;;;5.25;3.20;;;11.60;99.90;;;;;;4974263;28;20034;-87
2022/12/21 02:24:26;;;;;;;4.80;2.70;;;11.60;99.90;;;;;;4995205;28;20792;-87
2022/12/21 02:27:29;;;;;;;5.00;2.47;;;11.60;99.90;;;;;;4982436;28;20029;-87
2022/12/21 02:29:58;;;;;;;4.63;2.40;;;11.50;99.90;;;;;;4990811;28;20478;-86
2022/12/21 02:32:55;;;;;;;4.55;2.38;;;11.50;99.90;;;;;;4937643;28;20495;-87
2022/12/21 02:35:40;;;;;;;4.68;2.58;;;11.50;99.90;;;;;;4987562;28;20120;-87
2022/12/21 02:38:33;;;;;;;5.33;2.33;;;11.40;99.90;;;;;;4987033;28;20054;-87
2022/12/21 02:41:25;;;;;;;4.45;2.30;;;11.40;99.90;;;;;;4992667;28;20038;-87
2022/12/21 02:44:24;;;;;;;4.13;2.00;;;11.30;99.90;;;;;;4980076;28;20029;-87
2022/12/21 02:47:15;;;;;;;4.57;1.75;;;11.30;99.90;;;;;;4985985;28;20033;-87
2022/12/21 02:50:05;;;;;;;3.58;1.75;;;11.30;99.90;;;;;;4954498;28;20041;-87
2022/12/21 02:52:38;;;;;;;3.90;1.50;;;11.30;99.90;;;;;;4994361;28;21349;-86
2022/12/21 02:55:04;;;;;;;2.88;1.50;;;11.20;99.90;;;;;;4976820;28;20017;-87
2022/12/21 02:57:35;;;;;;;3.45;1.60;;;11.20;99.90;;;;;;4966348;28;20067;-87
2022/12/21 03:00:04;;;;;;;2.60;1.35;;;11.20;99.90;;;;;;4983907;28;20032;-87
2022/12/21 03:02:41;;;;;;;2.88;1.45;;;11.10;99.90;;;;;;5001258;28;20155;-89
2022/12/21 03:05:32;;;;;;;3.07;1.37;;;11.10;99.90;;;;;;4961840;28;20099;-90
2022/12/21 03:08:16;;;;;;;2.80;1.42;;;11.10;99.90;;;;;;4995558;28;20137;-90
2022/12/21 03:11:06;;;;;;;2.58;1.40;;;11.10;99.90;;;;;;5014611;28;20111;-90
2022/12/21 03:13:54;;;;;;;2.83;1.30;;;11.10;99.90;;;;;;4961762;28;20659;-90
2022/12/21 03:16:29;;;;;;;3.53;1.50;;;11.00;99.90;;;;;;4988699;28;20025;-90
2022/12/21 03:19:13;;;;;;;2.20;1.30;;;11.10;99.90;;;;;;4971160;28;20040;-90
2022/12/21 03:22:08;;;;;;;2.25;1.02;;;11.10;99.90;;;;;;4993793;28;20486;-90
2022/12/21 03:24:56;;;;;;;2.20;1.20;;;11.00;99.90;;;;;;4985629;28;20617;-90
2022/12/21 03:27:29;;;;;;;2.30;1.10;;;11.00;99.90;;;;;;4981466;28;20684;-90
2022/12/21 03:30:09;;;;;;;3.03;1.40;;;11.10;99.90;;;;;;4984110;28;20179;-90
2022/12/21 03:32:41;;;;;;;3.80;1.60;;;11.00;99.90;;;;;;5010648;28;20025;-90
2022/12/21 03:35:14;;;;;;;2.70;1.25;;;11.00;99.90;;;;;;4970071;28;20029;-90
2022/12/21 03:37:42;;;;;;;2.70;1.25;;;11.00;99.90;;;;;;4989368;28;20466;-90
2022/12/21 03:40:21;;;;;;;2.80;1.17;;;11.00;99.90;;;;;;4979664;28;20026;-90
2022/12/21 03:42:54;;;;;;;3.17;1.35;;;11.00;99.90;;;;;;5010333;28;20029;-90
2022/12/21 03:45:29;;;;;;;3.03;1.30;;;11.00;99.90;;;;;;4952801;28;20651;-89
2022/12/21 03:48:05;;;;;;;2.60;1.45;;;11.00;99.90;;;;;;4980349;28;20021;-89
2022/12/21 03:50:37;;;;;;;2.42;1.30;;;11.00;99.90;;;;;;4941762;28;20028;-89
2022/12/21 03:53:21;;;;;;;2.47;1.35;;;11.00;99.90;;;;;;4989910;28;20408;-89
2022/12/21 03:55:49;;;;;;;5.03;1.80;;;11.00;99.90;;;;;;4995819;28;20103;-89
2022/12/21 03:58:15;;;;;;;5.17;1.80;;;11.00;99.90;;;;;;4993005;28;20018;-89
2022/12/21 04:00:51;;;;;;;4.20;2.03;;;11.00;99.90;;;;;;4969913;28;20564;-89
2022/12/21 04:03:25;;;;;;;3.97;1.70;;;11.00;99.90;;;;;;4994266;28;20079;-90
2022/12/21 04:06:05;;;;;;;3.85;1.70;;;11.00;99.90;;;;;;4939137;28;20917;-90
2022/12/21 04:08:32;;;;;;;3.60;1.80;;;11.00;99.90;;;;;;4993114;28;20075;-90
2022/12/21 04:10:58;;;;;;;3.40;1.80;;;11.00;99.90;;;;;;4989355;28;20018;-89
2022/12/21 04:13:23;;;;;;;4.07;1.70;;;11.00;99.90;;;;;;5007878;28;20030;-90
2022/12/21 04:16:04;;;;;;;4.60;2.10;;;11.00;99.90;;;;;;4979466;28;20221;-90
2022/12/21 04:21:15;;;;;;;3.28;1.80;;;10.90;99.90;;;;;;4999328;28;20036;-89
2022/12/21 04:29:09;;;;;;;3.22;1.70;;;10.90;99.90;;;;;;5010072;28;20054;-87
2022/12/21 04:31:35;;;;;;;4.93;1.88;;;10.90;99.90;;;;;;4956275;28;20175;-87
2022/12/21 04:34:01;;;;;;;3.80;2.13;;;10.90;99.90;;;;;;4997935;28;20529;-87
2022/12/21 04:39:11;;;;;;;3.90;2.00;;;10.90;99.90;;;;;;5007780;28;20520;-87
2022/12/21 04:41:37;;;;;;;5.38;2.25;;;10.90;99.90;;;;;;4972428;28;20030;-87
2022/12/21 04:44:02;;;;;;;4.55;2.38;;;10.90;99.90;;;;;;4974810;28;20036;-87
2022/12/21 04:46:28;;;;;;;5.20;2.50;;;10.90;99.90;;;;;;4963131;28;20474;-87
2022/12/21 04:48:54;;;;;;;5.22;2.70;;;10.90;99.90;;;;;;4980714;28;20616;-87
2022/12/21 04:51:22;;;;;;;5.07;2.30;;;10.90;99.90;;;;;;4977373;28;20521;-87
2022/12/21 04:53:48;;;;;;;6.30;2.40;;;10.90;99.90;;;;;;4953655;28;20298;-87
2022/12/21 04:56:15;;;;;;;5.25;2.45;;;10.90;99.90;;;;;;4992332;28;20382;-87
2022/12/21 04:58:41;;;;;;;5.90;2.50;;;10.90;99.90;;;;;;4988510;28;20642;-87
2022/12/21 05:01:20;;;;;;;6.15;2.67;;;10.90;99.90;;;;;;4974904;28;20675;-87
2022/12/21 05:03:48;;;;;;;4.78;2.53;;;10.90;99.90;;;;;;4970134;28;20631;-87
2022/12/21 05:06:17;;;;;;;6.87;2.77;;;10.90;99.90;;;;;;4976119;28;20034;-87
2022/12/21 05:08:43;;;;;;;5.63;2.60;;;10.90;99.90;;;;;;4953244;28;20889;-87
2022/12/21 05:11:19;;;;;;;4.75;2.33;;;10.90;99.90;;;;;;4989071;28;20100;-87
2022/12/21 05:13:46;;;;;;;6.25;2.70;;;10.90;99.90;;;;;;4986762;28;20540;-87
2022/12/21 05:16:15;;;;;;;6.55;2.90;;;10.90;99.90;;;;;;5009987;28;20533;-90
2022/12/21 05:18:41;;;;;;;6.90;2.90;;;10.90;99.90;;;;;;4953768;28;20302;-89
2022/12/21 05:21:07;;;;;;;5.90;2.63;;;10.90;99.90;;;;;;4993864;28;20113;-90
2022/12/21 05:23:33;;;;;;;6.25;3.35;;;10.90;99.90;;;;;;4940922;28;20026;-89
2022/12/21 05:26:03;;;;;;;6.10;2.73;;;10.90;99.90;;;;;;4984642;28;20024;-87
2022/12/21 05:28:29;;;;;;;5.55;2.90;;;10.90;99.90;;;;;;4964380;28;20121;-87
2022/12/21 05:30:55;;;;;;;5.47;2.85;;;10.90;99.90;;;;;;4973365;28;20032;-87
2022/12/21 05:33:20;;;;;;;7.10;2.80;;;10.80;99.90;;;;;;4979156;28;20085;-87
2022/12/21 05:35:46;;;;;;;5.65;2.75;;;10.90;99.90;;;;;;4954605;28;20022;-87
2022/12/21 05:38:12;;;;;;;5.93;2.83;;;10.90;99.90;;;;;;4976066;28;20026;-87
2022/12/21 05:40:37;;;;;;;6.82;3.03;;;10.90;99.90;;;;;;4939683;28;20334;-87
2022/12/21 05:43:04;;;;;;;6.93;3.20;;;10.80;99.90;;;;;;4973264;28;20059;-87
2022/12/21 05:45:30;;;;;;;6.47;2.80;;;10.80;99.90;;;;;;4974016;28;20040;-87
2022/12/21 05:47:56;;;;;;;5.35;2.60;;;10.90;99.90;;;;;;4989860;28;20430;-87
2022/12/21 05:50:22;;;;;;;5.80;2.97;;;10.80;99.90;;;;;;4978016;28;20087;-87
2022/12/21 05:52:48;;;;;;;5.68;2.70;;;10.80;99.90;;;;;;4970515;28;20237;-87
2022/12/21 05:55:15;;;;;;;7.47;3.13;;;10.90;99.90;;;;;;4967120;28;20096;-87
2022/12/21 05:57:41;;;;;;;6.10;2.80;;;10.80;99.90;;;;;;4968673;28;20377;-87
2022/12/21 06:00:08;;;;;;;8.60;3.03;;;10.80;99.90;;;;;;5003233;28;20025;-87
2022/12/21 06:02:34;;;;;;;5.85;2.88;;;10.80;99.90;;;;;;4970158;28;20413;-87
2022/12/21 06:05:00;;;;;;;5.95;2.60;;;10.80;99.90;;;;;;4982696;28;20615;-87
2022/12/21 06:07:25;;;;;;;5.73;2.60;;;10.80;99.90;;;;;;4959759;28;20394;-87
2022/12/21 06:09:51;;;;;;;6.63;3.17;;;10.80;99.90;;;;;;4980300;28;20108;-87
2022/12/21 06:12:17;;;;;;;6.93;2.90;;;10.80;99.90;;;;;;4944226;28;20520;-87
2022/12/21 06:14:43;;;;;;;6.68;3.13;;;10.80;99.90;;;;;;4992906;28;20573;-87
2022/12/21 06:17:10;;;;;;;8.05;3.20;;;10.80;99.90;;;;;;4985641;28;20045;-87
2022/12/21 06:19:36;;;;;;;6.40;2.80;;;10.80;99.90;;;;;;4991332;28;20544;-87
2022/12/21 06:22:02;;;;;;;7.37;3.40;;;10.80;99.90;;;;;;4956087;28;20026;-87
2022/12/21 06:24:28;;;;;;;6.22;2.88;;;10.80;99.90;;;;;;4976603;28;20021;-87
2022/12/21 06:26:54;;;;;;;7.90;3.10;;;10.70;99.90;;;;;;4967647;28;20083;-87
2022/12/21 06:29:19;;;;;;;6.90;2.67;;;10.80;99.90;;;;;;4983680;28;20120;-87
2022/12/21 06:31:45;;;;;;;7.70;3.10;;;10.70;99.90;;;;;;4998182;28;20113;-87
2022/12/21 06:34:11;;;;;;;7.53;3.00;;;10.70;99.90;;;;;;4994501;28;20095;-87
2022/12/21 06:36:37;;;;;;;6.47;2.78;;;10.70;99.90;;;;;;4968906;28;20060;-87
2022/12/21 06:39:03;;;;;;;8.25;3.30;;;10.70;99.90;;;;;;4977128;28;20079;-86
2022/12/21 06:41:29;;;;;;;6.05;2.72;;;10.70;99.90;;;;;;4984272;28;20025;-87
2022/12/21 06:43:55;;;;;;;5.93;2.87;;;10.70;99.90;;;;;;4966613;28;20032;-87
2022/12/21 06:46:21;;;;;;;5.30;2.67;;;10.70;99.90;;;;;;4972406;28;20496;-87
2022/12/21 06:48:47;;;;;;;8.38;3.20;;;10.60;99.90;;;;;;4998259;28;20664;-86
2022/12/21 06:51:15;;;;;;;5.80;2.83;;;10.60;99.90;;;;;;4967977;28;20576;-87
2022/12/21 06:53:43;;;;;;;8.23;3.40;;;10.60;99.90;;;;;;4973221;28;20068;-86
2022/12/21 06:56:11;;;;;;;8.65;3.78;;;10.60;99.90;;;;;;4980645;28;20026;-86
2022/12/21 06:58:38;;;;;;;9.88;3.83;;;10.60;99.90;;;;;;4953534;28;20030;-87
2022/12/21 07:01:09;;;;;;;7.32;3.47;;;10.60;99.90;;;;;;5008881;28;20104;-90
2022/12/21 07:03:36;;;;;;;9.53;3.73;;;10.60;99.90;;;;;;5011038;28;20363;-89
2022/12/21 07:06:03;;;;;;;7.22;3.00;;;10.50;99.90;;;;;;4982292;28;20506;-88
2022/12/21 07:08:30;;;;;;;7.43;2.92;;;10.50;99.90;;;;;;4999205;28;21842;-88
2022/12/21 07:11:00;;;;;;;6.43;2.80;;;10.50;99.90;;;;;;4965099;28;20556;-88
2022/12/21 07:13:26;;;;;;;6.30;2.60;;;10.50;99.90;;;;;;5011327;28;20025;-88
2022/12/21 07:15:53;;;;;;;6.30;3.07;;;10.50;99.90;;;;;;4982279;28;20453;-89
2022/12/21 07:18:19;;;;;;;5.50;2.40;;;10.50;99.90;;;;;;4985882;28;20175;-88
2022/12/21 07:20:45;;;;;;;4.80;2.40;;;10.50;99.90;;;;;;4991040;28;20032;-89
2022/12/21 07:23:11;;;;;;;7.10;3.78;;;10.50;99.90;;;;;;4955759;28;20444;-88
2022/12/21 07:25:37;;;;;;;5.50;2.37;;;10.50;99.90;;;;;;4980381;28;20129;-89
2022/12/21 07:28:02;;;;;;;6.63;2.92;;;10.50;99.90;;;;;;4975371;28;20117;-89
2022/12/21 07:30:28;;;;;;;6.73;2.90;;;10.50;99.90;;;;;;4949171;28;20124;-89
2022/12/21 07:32:54;;;;;;;6.93;3.30;;;10.50;99.90;;;;;;4961234;28;20029;-89
2022/12/21 07:35:21;;;;;;;6.20;2.83;;;10.50;99.90;;;;;;4984263;28;20021;-88
2022/12/21 07:37:48;;;;;;;7.28;3.10;;;10.50;99.90;;;;;;5000185;28;20147;-88
2022/12/21 07:40:17;;;;;;;7.57;2.90;;;10.50;99.90;;;;;;4965857;28;20483;-88
2022/12/21 07:42:47;;;;;;;6.20;3.08;;;10.50;99.90;;;;;;4969169;28;20674;-88
2022/12/21 07:45:13;;;;;;;7.32;2.75;;;10.40;99.90;;;;;;4967484;28;20034;-88
2022/12/21 07:47:38;;;;;;;6.30;3.40;;;10.50;99.90;;;;;;4988919;28;20103;-88
2022/12/21 07:50:06;;;;;;;6.93;2.93;;;10.50;99.90;;;;;;4976879;28;20375;-88
2022/12/21 07:52:31;;;;;;;7.10;3.58;;;10.50;99.90;;;;;;4989988;28;20029;-88
2022/12/21 07:54:58;;;;;;;8.98;4.18;;;10.50;99.90;;;;;;4975809;28;20480;-88
2022/12/21 07:57:24;;;;;;;8.18;3.60;;;10.50;99.90;;;;;;4964604;28;20219;-89
2022/12/21 07:59:50;;;;;;;7.20;3.57;;;10.40;99.90;;;;;;4982351;28;20064;-87
2022/12/21 08:02:16;;;;;;;7.72;3.58;;;10.50;99.90;;;;;;4951497;28;20591;-89
2022/12/21 08:04:42;;;;;;;7.70;3.45;;;10.40;99.90;;;;;;4982694;28;20022;-88
2022/12/21 08:07:07;;;;;;;10.30;4.43;;;10.40;99.90;;;;;;4977811;28;20037;-88
2022/12/21 08:09:35;;;;;;;9.35;4.00;;;10.40;99.90;;;;;;4955074;28;20032;-88
2022/12/21 08:12:01;;;;;;;8.45;3.65;;;10.40;99.90;;;;;;4947872;28;20135;-85
2022/12/21 08:14:27;;;;;;;8.03;3.40;;;10.40;99.90;;;;;;4975948;28;20072;-86
2022/12/21 08:16:54;;;;;;;8.15;3.75;;;10.40;99.90;;;;;;4961290;28;20116;-86
2022/12/21 08:19:21;;;;;;;9.25;3.95;;;10.40;99.90;;;;;;4986910;28;20018;-86
2022/12/21 08:21:46;;;;;;;8.48;3.72;;;10.40;99.90;;;;;;4976512;28;20060;-86
2022/12/21 08:24:12;;;;;;;6.47;3.42;;;10.40;99.90;;;;;;4974597;28;20330;-86
2022/12/21 08:26:38;;;;;;;6.60;3.20;;;10.40;99.90;;;;;;4970084;28;20030;-86
2022/12/21 08:29:05;;;;;;;7.70;3.83;;;10.50;99.90;;;;;;4996687;28;20029;-86
2022/12/21 08:31:31;;;;;;;9.13;4.70;;;10.50;99.90;;;;;;4982887;28;20029;-86
2022/12/21 08:33:57;;;;;;;7.57;3.90;;;10.50;99.90;;;;;;4936968;28;20179;-86
2022/12/21 08:36:24;;;;;;;7.57;4.03;;;10.50;99.90;;;;;;4995503;28;20072;-86
2022/12/21 08:38:51;;;;;;;7.90;4.15;;;10.60;99.90;;;;;;4997569;28;20120;-86
2022/12/21 08:41:17;;;;;;;7.60;4.20;;;10.60;99.90;;;;;;4972632;28;20026;-87
2022/12/21 08:43:43;;;;;;;7.70;4.00;;;10.70;99.90;;;;;;4967270;28;20018;-86
2022/12/21 08:46:11;;;;;;;9.37;4.37;;;10.70;99.90;;;;;;4993620;28;20486;-85
2022/12/21 08:48:37;;;;;;;9.07;4.15;;;10.80;99.90;;;;;;4959371;28;20030;-86
2022/12/21 08:51:05;;;;;;;8.25;3.72;;;10.80;99.90;;;;;;4981821;28;20169;-86
2022/12/21 08:53:31;;;;;;;8.10;3.78;;;10.80;99.90;;;;;;4998292;28;20401;-86
2022/12/21 08:55:57;;;;;;;8.57;3.80;;;10.80;99.90;;;;;;4980349;28;20142;-86
2022/12/21 08:58:23;;;;;;;7.30;3.60;;;10.80;99.90;;;;;;4957932;28;20048;-86
2022/12/21 09:00:54;;;;;;;8.52;3.90;;;10.80;99.90;;;;;;4995191;28;20637;-86
2022/12/21 09:03:21;;;;;;;8.10;4.00;;;10.80;99.90;;;;;;4955117;28;20888;-86
2022/12/21 09:05:52;;;;;;;7.63;3.47;;;10.80;99.90;;;;;;4987010;28;20515;-86
2022/12/21 09:08:18;;;;;;;7.78;3.60;;;10.70;99.90;;;;;;4963233;28;20590;-86
2022/12/21 09:10:44;;;;;;;9.05;3.88;;;10.80;99.90;;;;;;4964904;28;20024;-85
2022/12/21 09:13:10;;;;;;;8.70;4.03;;;10.80;99.90;;;;;;4965139;28;20029;-85
2022/12/21 09:15:42;;;;;;;10.38;4.22;;;10.80;99.90;;;;;;4997808;28;20017;-85
2022/12/21 09:18:09;;;;;;;13.27;5.30;;;10.80;99.90;;;;;;4987725;28;20354;-85
2022/12/21 09:20:35;;;;;;;11.33;5.10;;;10.70;99.90;;;;;;4978848;28;20026;-85
2022/12/21 09:23:01;;;;;;;11.77;5.30;;;10.70;99.90;;;;;;4981778;28;20034;-85
2022/12/21 09:25:27;;;;;;;13.32;5.20;;;10.80;99.90;;;;;;4982233;28;20243;-86
2022/12/21 09:27:53;;;;;;;10.80;4.80;;;10.80;99.90;;;;;;4983378;28;20167;-87
2022/12/21 09:30:19;;;;;;;12.53;4.77;;;10.80;99.90;;;;;;4952136;28;20310;-86
2022/12/21 09:32:45;;;;;;;10.07;4.65;;;10.80;99.90;;;;;;4989690;28;20788;-86
2022/12/21 09:35:10;;;;;;;9.83;4.43;;;10.90;99.90;;;;;;4980284;28;20060;-86
2022/12/21 09:37:37;;;;;;;10.55;4.60;;;10.90;99.90;;;;;;4969045;28;20025;-86
2022/12/21 09:40:04;;;;;;;11.63;5.32;;;11.00;99.90;;;;;;4980863;28;20022;-86
2022/12/21 09:42:39;;;;;;;10.80;4.27;;;11.00;99.90;;;;;;4975868;28;20022;-86
2022/12/21 09:45:26;;;;;;;11.65;5.00;;;11.10;99.90;;;;;;4978776;28;20361;-86
2022/12/21 09:47:57;;;;;;;9.68;4.00;;;11.10;99.90;;;;;;4988197;28;20033;-86
2022/12/21 09:50:45;;;;;;;8.43;3.97;;;11.10;99.90;;;;;;4968879;28;20694;-86
2022/12/21 09:53:39;;;;;;;8.27;3.78;;;11.20;99.90;;;;;;4996966;28;20033;-86
2022/12/21 09:56:06;;;;;;;10.23;4.00;;;11.30;99.90;;;;;;4970860;28;20199;-86
2022/12/21 09:58:45;;;;;;;8.32;3.80;;;11.40;99.90;;;;;;4994064;28;20109;-87
2022/12/21 10:01:29;;;;;;;11.13;4.47;;;11.40;99.90;;;;;;4972393;28;20414;-87
2022/12/21 10:04:25;;;;;;;8.65;3.83;;;11.50;99.90;;;;;;4973783;28;20117;-87
2022/12/21 10:07:27;;;;;;;9.80;3.78;;;11.60;99.90;;;;;;4979915;28;20054;-87
2022/12/21 10:10:33;;;;;;;7.40;3.37;;;11.70;99.90;;;;;;4988830;28;20729;-89
2022/12/21 10:13:23;;;;;;;7.30;3.35;;;11.70;99.90;;;;;;4960440;28;20526;-89
2022/12/21 10:16:01;;;;;;;6.80;3.63;;;11.80;99.90;;;;;;4948549;28;20033;-90
2022/12/21 10:18:50;;;;;;;6.57;3.45;;;11.90;99.90;;;;;;4953786;28;20251;-89
2022/12/21 10:21:45;;;;;;;7.00;3.05;;;12.10;99.90;;;;;;4957010;28;20076;-88
2022/12/21 10:24:22;;;;;;;8.57;3.57;;;12.20;99.90;;;;;;4988012;28;20032;-88
2022/12/21 10:26:51;;;;;;;7.80;3.30;;;12.40;99.90;;;;;;4983269;28;20490;-90
2022/12/21 10:29:31;;;;;;;8.20;3.47;;;12.60;99.90;;;;;;4987831;28;20784;-88
2022/12/21 10:31:59;;;;;;;6.72;2.95;;;12.60;99.90;;;;;;4996154;28;20026;-89
2022/12/21 10:34:35;;;;;;;7.38;3.33;;;12.70;99.90;;;;;;4985980;28;20429;-88
2022/12/21 10:37:12;;;;;;;7.00;3.00;;;12.70;99.90;;;;;;4952031;28;20054;-86
2022/12/21 10:39:38;;;;;;;7.15;3.58;;;12.70;99.90;;;;;;5021446;28;20079;-85
2022/12/21 10:42:12;;;;;;;8.45;3.72;;;12.70;99.90;;;;;;5004961;28;20425;-85
2022/12/21 10:44:40;;;;;;;5.73;3.37;;;12.60;99.90;;;;;;5013699;28;20034;-86
2022/12/21 10:47:24;;;;;;;6.78;3.75;;;12.50;99.90;;;;;;5004219;28;20693;-85
2022/12/21 10:50:10;;;;;;;6.38;3.50;;;12.50;99.90;;;;;;4992891;28;20018;-87
2022/12/21 10:52:44;;;;;;;6.15;3.45;;;12.40;99.90;;;;;;4986887;28;20037;-85
2022/12/21 10:55:19;;;;;;;6.68;3.20;;;12.30;99.90;;;;;;5004210;28;20021;-86
2022/12/21 10:57:45;;;;;;;8.00;3.67;;;12.20;99.90;;;;;;4993927;28;20108;-85
2022/12/21 11:00:20;;;;;;;7.20;3.80;;;12.20;99.90;;;;;;4996087;28;20060;-87
2022/12/21 11:02:47;;;;;;;5.82;3.53;;;12.10;99.90;;;;;;4991100;28;20229;-87
2022/12/21 11:05:33;;;;;;;6.57;3.60;;;12.00;99.90;;;;;;4983462;28;20092;-85
2022/12/21 11:08:13;;;;;;;6.63;3.78;;;12.00;99.90;;;;;;4978420;28;20072;-86
2022/12/21 11:10:48;;;;;;;6.30;3.57;;;12.00;99.90;;;;;;4992246;28;20036;-86
2022/12/21 11:13:16;;;;;;;6.05;3.28;;;11.90;99.90;;;;;;5023389;28;20028;-86
2022/12/21 11:16:03;;;;;;;6.28;3.75;;;11.80;99.90;;;;;;5018423;28;20026;-86
2022/12/21 11:18:45;;;;;;;8.43;3.95;;;11.80;99.90;;;;;;4998548;28;20080;-86
2022/12/21 11:21:37;;;;;;;7.20;3.80;;;11.80;99.90;;;;;;4997012;28;20760;-86
2022/12/21 11:24:06;;;;;;;7.53;3.57;;;11.70;99.90;;;;;;4962860;28;20069;-86
2022/12/21 11:26:44;;;;;;;5.70;3.42;;;11.70;99.90;;;;;;5019911;28;20597;-86
2022/12/21 11:29:27;;;;;;;6.70;3.70;;;11.70;99.90;;;;;;5011359;28;20030;-86
2022/12/21 11:31:55;;;;;;;7.75;3.67;;;11.60;99.90;;;;;;4986963;28;20309;-85
2022/12/21 11:34:32;;;;;;;6.18;2.90;;;11.60;99.90;;;;;;4969142;28;20037;-86
2022/12/21 11:37:02;;;;;;;5.53;3.10;;;11.60;99.90;;;;;;4996482;28;20064;-86
2022/12/21 11:39:29;;;;;;;6.78;3.63;;;11.60;99.90;;;;;;4955869;28;20029;-87
2022/12/21 11:41:55;;;;;;;6.28;3.35;;;11.70;99.90;;;;;;4982849;28;20271;-86
2022/12/21 11:44:28;;;;;;;7.30;3.17;;;11.70;99.90;;;;;;4984973;28;20718;-86
2022/12/21 11:47:21;;;;;;;6.03;2.88;;;11.70;99.90;;;;;;4993334;28;20421;-86
2022/12/21 11:49:59;;;;;;;4.03;2.63;;;11.70;99.90;;;;;;4979655;28;20266;-86
2022/12/21 11:52:46;;;;;;;5.20;2.58;;;11.80;99.90;;;;;;4987572;28;20395;-86
2022/12/21 11:55:52;;;;;;;6.05;2.92;;;11.80;99.90;;;;;;4967484;28;20493;-85
2022/12/21 11:58:40;;;;;;;6.47;3.10;;;11.80;99.90;;;;;;5003236;28;20034;-86
2022/12/21 12:01:34;;;;;;;6.60;3.00;;;11.80;99.90;;;;;;5003570;28;20080;-86
2022/12/21 12:04:08;;;;;;;4.80;2.77;;;11.80;99.90;;;;;;4993002;28;20080;-86
2022/12/21 12:06:58;;;;;;;6.65;3.40;;;11.80;99.90;;;;;;4977011;28;20052;-86
2022/12/21 12:09:48;;;;;;;5.47;2.80;;;11.80;99.90;;;;;;4954470;28;20476;-86
2022/12/21 12:12:29;;;;;;;4.60;2.85;;;11.70;99.90;;;;;;4993013;28;20334;-86
2022/12/21 12:15:30;;;;;;;5.03;2.88;;;11.70;99.90;;;;;;5009969;28;20037;-87
2022/12/21 12:18:18;;;;;;;5.03;3.00;;;11.80;99.90;;;;;;4970817;28;20128;-86
2022/12/21 12:21:01;;;;;;;6.47;3.22;;;11.70;99.90;;;;;;5000787;28;20088;-86
2022/12/21 12:23:49;;;;;;;5.82;3.20;;;11.70;99.90;;;;;;4981942;28;20095;-86
2022/12/21 12:26:56;;;;;;;6.38;3.60;;;11.70;99.90;;;;;;4968074;28;20131;-86
2022/12/21 12:29:27;;;;;;;5.53;3.03;;;11.70;99.90;;;;;;4900246;29;20035;-87
2022/12/21 12:32:07;;;;;;;5.87;2.90;;;11.70;99.90;;;;;;4969112;28;20030;-86
2022/12/21 12:34:46;;;;;;;6.05;3.20;;;11.70;99.90;;;;;;4980632;28;20033;-86
2022/12/21 12:37:27;;;;;;;5.15;2.90;;;11.60;99.90;;;;;;4979039;28;20026;-86
2022/12/21 12:40:14;;;;;;;6.13;3.05;;;11.60;99.90;;;;;;4997773;28;20018;-86
2022/12/21 12:42:51;;;;;;;5.28;2.33;;;11.60;99.90;;;;;;4951579;28;20069;-86
2022/12/21 12:45:35;;;;;;;5.90;2.93;;;11.70;99.90;;;;;;4983092;28;20663;-86
2022/12/21 12:48:16;;;;;;;5.20;3.03;;;11.60;99.90;;;;;;4977345;28;21074;-86
2022/12/21 12:51:15;;;;;;;4.45;2.75;;;11.60;99.90;;;;;;4982409;28;21200;-87
2022/12/21 12:54:05;;;;;;;4.45;2.50;;;11.70;99.90;;;;;;4997664;28;20041;-86
2022/12/21 12:56:48;;;;;;;4.75;2.75;;;11.70;99.90;;;;;;4967803;28;20034;-87
2022/12/21 12:59:39;;;;;;;5.03;2.37;;;11.70;99.90;;;;;;4990436;28;20478;-87
2022/12/21 13:02:17;;;;;;;5.45;2.45;;;11.80;99.90;;;;;;4993491;28;20036;-88
2022/12/21 13:05:09;;;;;;;5.85;2.85;;;11.90;99.90;;;;;;4992134;28;20232;-86
2022/12/21 13:07:43;;;;;;;6.25;2.67;;;11.90;99.90;;;;;;4959957;28;20045;-87
2022/12/21 13:10:43;;;;;;;5.75;2.60;;;12.00;99.90;;;;;;5009607;28;20497;-87
2022/12/21 13:13:09;;;;;;;5.00;2.30;;;12.10;99.90;;;;;;4973958;28;20058;-87
2022/12/21 13:15:53;;;;;;;4.72;2.30;;;12.20;99.90;;;;;;5005197;28;20022;-87
2022/12/21 13:18:24;;;;;;;4.65;2.50;;;12.30;99.90;;;;;;4978470;28;20013;-89
2022/12/21 13:20:55;;;;;;;5.60;2.70;;;12.40;99.90;;;;;;5004855;28;20108;-87
2022/12/21 13:23:44;;;;;;;5.53;2.42;;;12.50;99.90;;;;;;4971161;28;20032;-88